Time;durP1;ratioP1;P1;durP2;ratioP2;P2;SDS_P1;SDS_P2;PMS_P1;PMS_P2;Temp;Humidity;BMP_temperature;BMP_pressure;BME280_temperature;BME280_humidity;BME280_pressure;Samples;Min_cycle;Max_cycle;Signal;HPM_P1;HPM_P2
2022/12/21 00:00:25;;;;;;;;;;;;;;;-6.01;76.00;99901.44;5082926;28;20258;-67
2022/12/21 00:02:52;;;;;;;;;;;;;;;-6.01;76.20;99898.78;5082758;28;19934;-67
2022/12/21 00:05:18;;;;;;;;;;;;;;;-5.96;76.28;99898.25;5084275;28;19935;-67
2022/12/21 00:07:43;;;;;;;;;;;;;;;-5.90;76.18;99900.28;5085901;28;20421;-67
2022/12/21 00:10:10;;;;;;;;;;;;;;;-5.87;76.13;99896.44;5082958;28;19954;-67
2022/12/21 00:12:35;;;;;;;;;;;;;;;-5.87;75.89;99894.63;5047831;28;19940;-67
2022/12/21 00:15:01;;;;;;;;;;;;;;;-5.88;75.88;99908.94;5083277;28;20030;-67
2022/12/21 00:17:27;;;;;;;;;;;;;;;-5.87;75.83;99907.94;5046769;28;19928;-67
2022/12/21 00:19:54;;;;;;;;;;;;;;;-5.88;76.09;99914.25;5063288;28;19928;-67
2022/12/21 00:22:19;;;;;;;;;;;;;;;-5.87;75.99;99910.59;5082488;28;19927;-67
2022/12/21 00:24:45;;;;;;;;;;;;;;;-5.89;75.74;99911.75;5082729;28;19982;-67
2022/12/21 00:27:11;;;;;;;;;;;;;;;-5.90;76.15;99910.94;5065216;28;20353;-67
2022/12/21 00:29:36;;;;;;;;;;;;;;;-5.86;76.18;99916.75;5081910;28;19973;-67
2022/12/21 00:32:02;;;;;;;;;;;;;;;-5.91;76.09;99913.75;5063677;28;19993;-68
2022/12/21 00:34:28;;;;;;;;;;;;;;;-5.90;76.21;99910.09;5063140;28;19934;-66
2022/12/21 00:36:56;;;;;;;;;;;;;;;-5.82;76.03;99915.44;5083398;28;20022;-67
2022/12/21 00:39:22;;;;;;;;;;;;;;;-5.81;76.31;99914.44;5047681;28;19940;-67
2022/12/21 00:41:47;;;;;;;;;;;;;;;-5.90;76.18;99905.59;5062881;28;20035;-66
2022/12/21 00:44:13;;;;;;;;;;;;;;;-5.81;76.15;99916.25;5047182;28;19928;-66
2022/12/21 00:46:39;;;;;;;;;;;;;;;-5.77;76.15;99912.28;5082036;28;19928;-67
2022/12/21 00:49:06;;;;;;;;;;;;;;;-5.71;76.12;99916.94;5082587;28;19928;-67
2022/12/21 00:51:33;;;;;;;;;;;;;;;-5.67;75.81;99914.78;5064633;28;19928;-66
2022/12/21 00:54:00;;;;;;;;;;;;;;;-5.65;75.85;99910.13;5080454;28;20362;-67
2022/12/21 00:56:26;;;;;;;;;;;;;;;-5.66;75.51;99913.78;5087229;28;19975;-67
2022/12/21 00:58:52;;;;;;;;;;;;;;;-5.62;75.50;99913.28;5055515;28;19980;-67
2022/12/21 01:01:18;;;;;;;;;;;;;;;-5.64;75.16;99903.78;5086410;28;19928;-66
2022/12/21 01:03:44;;;;;;;;;;;;;;;-5.67;75.28;99912.13;5086127;28;19928;-66
2022/12/21 01:06:12;;;;;;;;;;;;;;;-5.70;75.28;99906.13;5068265;28;19935;-65
2022/12/21 01:08:38;;;;;;;;;;;;;;;-5.70;75.48;99903.47;5085670;28;19928;-67
2022/12/21 01:11:05;;;;;;;;;;;;;;;-5.71;75.36;99906.28;5068394;28;20300;-67
2022/12/21 01:13:32;;;;;;;;;;;;;;;-5.74;75.66;99906.63;5085152;28;20018;-66
2022/12/21 01:15:58;;;;;;;;;;;;;;;-5.80;75.73;99907.25;5086228;28;20296;-66
2022/12/21 01:18:24;;;;;;;;;;;;;;;-5.81;76.07;99909.13;5066807;28;20326;-67
2022/12/21 01:20:51;;;;;;;;;;;;;;;-5.79;76.01;99909.78;5068994;28;19964;-67
2022/12/21 01:23:17;;;;;;;;;;;;;;;-5.76;76.00;99916.63;5064406;28;20306;-66
2022/12/21 01:25:43;;;;;;;;;;;;;;;-5.80;75.91;99921.44;5085944;28;19935;-66
2022/12/21 01:28:11;;;;;;;;;;;;;;;-5.80;76.15;99916.09;5085103;28;19935;-66
2022/12/21 01:30:38;;;;;;;;;;;;;;;-5.78;76.08;99913.25;5068390;28;19978;-67
2022/12/21 01:33:04;;;;;;;;;;;;;;;-5.81;75.97;99930.41;5067148;28;19963;-66
2022/12/21 01:35:30;;;;;;;;;;;;;;;-5.80;76.17;99926.75;5066349;28;19966;-68
2022/12/21 01:37:56;;;;;;;;;;;;;;;-5.74;76.31;99928.75;5066748;28;19943;-67
2022/12/21 01:40:22;;;;;;;;;;;;;;;-5.69;76.13;99920.28;5085304;28;19932;-67
2022/12/21 01:42:48;;;;;;;;;;;;;;;-5.71;76.22;99932.94;5051979;28;20338;-66
2022/12/21 01:45:17;;;;;;;;;;;;;;;-5.69;76.05;99930.94;5067395;28;19966;-66
2022/12/21 01:47:45;;;;;;;;;;;;;;;-5.72;76.26;99936.59;5084183;28;19928;-65
2022/12/21 01:50:26;;;;;;;;;;;;;;;-5.72;76.20;99940.06;5065301;28;19932;-65
2022/12/21 01:52:53;;;;;;;;;;;;;;;-5.66;76.11;99930.59;5049318;28;20308;-65
2022/12/21 01:55:19;;;;;;;;;;;;;;;-5.65;76.24;99926.94;5084745;28;19928;-65
2022/12/21 01:57:46;;;;;;;;;;;;;;;-5.70;76.21;99913.28;5083335;28;19928;-66
2022/12/21 02:00:12;;;;;;;;;;;;;;;-5.65;76.22;99921.59;5083245;28;20038;-66
2022/12/21 02:02:44;;;;;;;;;;;;;;;-5.67;76.30;99926.25;5065457;28;19928;-65
2022/12/21 02:05:13;;;;;;;;;;;;;;;-5.68;76.38;99927.25;5083779;28;19936;-66
2022/12/21 02:07:40;;;;;;;;;;;;;;;-5.70;76.50;99919.44;5082163;28;19981;-66
2022/12/21 02:10:06;;;;;;;;;;;;;;;-5.72;76.51;99921.44;5064806;28;19928;-66
2022/12/21 02:12:32;;;;;;;;;;;;;;;-5.84;76.68;99915.59;5049286;28;19932;-66
2022/12/21 02:14:58;;;;;;;;;;;;;;;-5.77;76.98;99926.41;5065406;28;20429;-65
2022/12/21 02:17:29;;;;;;;;;;;;;;;-5.74;76.97;99927.94;5047835;28;19935;-65
2022/12/21 02:20:08;;;;;;;;;;;;;;;-5.68;76.89;99924.59;5083411;28;19928;-65
2022/12/21 02:22:45;;;;;;;;;;;;;;;-5.65;76.73;99921.59;5081985;28;20026;-65
2022/12/21 02:25:37;;;;;;;;;;;;;;;-5.62;76.84;99915.13;5085513;28;19935;-65
2022/12/21 02:28:16;;;;;;;;;;;;;;;-5.61;76.48;99917.63;5048919;28;19935;-65
2022/12/21 02:30:52;;;;;;;;;;;;;;;-5.65;76.73;99913.59;5048981;28;20069;-65
2022/12/21 02:33:23;;;;;;;;;;;;;;;-5.67;76.81;99907.63;5085037;28;19928;-65
2022/12/21 02:35:56;;;;;;;;;;;;;;;-5.66;76.91;99908.47;5081035;28;19928;-65
2022/12/21 02:38:32;;;;;;;;;;;;;;;-5.66;76.93;99905.78;5065764;28;19928;-65
2022/12/21 02:41:03;;;;;;;;;;;;;;;-5.66;77.08;99908.47;5066351;28;19971;-65
2022/12/21 02:46:24;;;;;;;;;;;;;;;-5.75;77.05;99908.44;5083198;28;19928;-65
2022/12/21 02:48:51;;;;;;;;;;;;;;;-5.73;77.14;99910.94;4982195;28;1934308;-65
2022/12/21 02:51:20;;;;;;;;;;;;;;;-5.73;77.13;99898.44;5048392;28;20031;-66
2022/12/21 02:53:47;;;;;;;;;;;;;;;-5.74;77.18;99898.63;5065187;28;19950;-65
2022/12/21 02:56:16;;;;;;;;;;;;;;;-5.82;77.12;99904.78;5082763;28;20541;-66
2022/12/21 02:58:44;;;;;;;;;;;;;;;-5.82;77.32;99901.28;5067422;28;19927;-65
2022/12/21 03:01:17;;;;;;;;;;;;;;;-5.82;77.51;99906.59;5066527;28;19928;-65
2022/12/21 03:04:00;;;;;;;;;;;;;;;-5.80;77.61;99899.28;5049033;28;20303;-65
2022/12/21 03:06:40;;;;;;;;;;;;;;;-5.75;77.56;99895.13;5067232;28;19940;-66
2022/12/21 03:09:13;;;;;;;;;;;;;;;-5.74;77.46;99894.13;5084279;28;20026;-65
2022/12/21 03:11:46;;;;;;;;;;;;;;;-5.75;77.61;99886.31;5064868;28;19928;-65
2022/12/21 03:14:17;;;;;;;;;;;;;;;-5.73;77.81;99884.31;5067580;28;19928;-65
2022/12/21 03:16:47;;;;;;;;;;;;;;;-5.71;77.97;99887.63;5081451;28;19928;-65
2022/12/21 03:19:19;;;;;;;;;;;;;;;-5.67;77.77;99890.81;5067800;28;20465;-65
2022/12/21 03:21:46;;;;;;;;;;;;;;;-5.69;78.06;99885.63;5084405;28;20383;-66
2022/12/21 03:24:14;;;;;;;;;;;;;;;-5.68;77.95;99887.28;5044485;28;19933;-66
2022/12/21 03:26:45;;;;;;;;;;;;;;;-5.69;78.10;99890.97;5045399;28;19935;-66
2022/12/21 03:29:14;;;;;;;;;;;;;;;-5.71;78.28;99884.97;5068930;28;19935;-66
2022/12/21 03:31:42;;;;;;;;;;;;;;;-5.84;78.59;99864.97;5083270;28;20319;-66
2022/12/21 03:34:12;;;;;;;;;;;;;;;-5.72;78.47;99885.97;5082533;28;19928;-65
2022/12/21 03:36:42;;;;;;;;;;;;;;;-5.74;78.79;99888.78;5082730;28;19928;-66
2022/12/21 03:39:10;;;;;;;;;;;;;;;-5.74;78.68;99887.97;5085396;28;19950;-66
2022/12/21 03:41:38;;;;;;;;;;;;;;;-5.70;78.82;99899.97;5082022;28;20259;-66
2022/12/21 03:44:06;;;;;;;;;;;;;;;-5.67;78.95;99888.16;5082447;28;19967;-65
2022/12/21 03:46:34;;;;;;;;;;;;;;;-5.62;78.98;99889.31;5080435;28;19965;-66
2022/12/21 03:49:02;;;;;;;;;;;;;;;-5.60;79.02;99889.13;5047464;28;19927;-66
2022/12/21 03:51:35;;;;;;;;;;;;;;;-5.60;79.07;99886.47;5082467;28;20417;-66
2022/12/21 03:54:06;;;;;;;;;;;;;;;-5.61;79.24;99890.97;5084778;28;19928;-65
2022/12/21 03:56:34;;;;;;;;;;;;;;;-5.72;79.17;99880.66;5079842;28;20045;-65
2022/12/21 03:59:00;;;;;;;;;;;;;;;-5.60;79.28;99891.78;5083281;28;19932;-65
2022/12/21 04:01:32;;;;;;;;;;;;;;;-5.61;79.36;99893.66;5081830;28;20027;-65
2022/12/21 04:04:00;;;;;;;;;;;;;;;-5.64;79.49;99891.28;5079320;28;20344;-65
2022/12/21 04:06:27;;;;;;;;;;;;;;;-5.63;79.46;99886.81;5065889;28;19935;-65
2022/12/21 04:08:53;;;;;;;;;;;;;;;-5.62;79.50;99885.81;5084502;28;19992;-65
2022/12/21 04:14:05;;;;;;;;;;;;;;;-5.58;79.57;99877.31;5083447;28;19928;-65
2022/12/21 04:16:30;;;;;;;;;;;;;;;-5.60;79.58;99876.66;5083928;28;20414;-65
2022/12/21 04:21:40;;;;;;;;;;;;;;;-5.61;79.31;99861.66;5064165;28;19936;-65
2022/12/21 04:29:37;;;;;;;;;;;;;;;-5.57;79.59;99867.47;5083251;28;20394;-65
2022/12/21 04:32:03;;;;;;;;;;;;;;;-5.59;79.74;99867.66;5083791;28;19935;-66
2022/12/21 04:34:29;;;;;;;;;;;;;;;-5.58;79.55;99869.31;5082336;28;19934;-65
2022/12/21 04:39:39;;;;;;;;;;;;;;;-5.58;79.72;99873.81;5082767;28;20027;-65
2022/12/21 04:42:06;;;;;;;;;;;;;;;-5.55;79.86;99868.13;5081440;28;20030;-65
2022/12/21 04:44:32;;;;;;;;;;;;;;;-5.58;79.74;99871.13;5065662;28;19927;-65
2022/12/21 04:46:58;;;;;;;;;;;;;;;-5.81;80.15;99844.34;5064459;28;19981;-66
2022/12/21 04:49:24;;;;;;;;;;;;;;;-5.59;80.35;99880.13;5067721;28;20475;-65
2022/12/21 04:51:49;;;;;;;;;;;;;;;-5.66;80.44;99877.31;5083266;28;20019;-65
2022/12/21 04:54:15;;;;;;;;;;;;;;;-5.67;80.57;99878.31;5066672;28;19977;-66
2022/12/21 04:56:41;;;;;;;;;;;;;;;-5.62;81.02;99885.81;5083297;28;20464;-66
2022/12/21 04:59:08;;;;;;;;;;;;;;;-5.53;80.91;99883.97;5083914;28;19928;-65
2022/12/21 05:01:34;;;;;;;;;;;;;;;-5.50;80.81;99887.13;5082665;28;19928;-65
2022/12/21 05:04:00;;;;;;;;;;;;;;;-5.49;80.67;99888.81;5062779;28;20319;-65
2022/12/21 05:06:25;;;;;;;;;;;;;;;-5.48;80.72;99895.78;5081003;28;19935;-66
2022/12/21 05:08:51;;;;;;;;;;;;;;;-5.48;80.84;99892.28;5082337;28;19985;-65
2022/12/21 05:11:17;;;;;;;;;;;;;;;-5.47;80.88;99902.78;5083034;28;20382;-66
2022/12/21 05:13:43;;;;;;;;;;;;;;;-5.45;80.88;99900.78;5076171;28;19977;-66
2022/12/21 05:16:12;;;;;;;;;;;;;;;-5.45;81.12;99908.78;5081325;28;20338;-66
2022/12/21 05:18:38;;;;;;;;;;;;;;;-5.44;81.20;99906.97;5080354;28;20395;-66
2022/12/21 05:21:03;;;;;;;;;;;;;;;-5.44;81.27;99909.63;5082515;28;19982;-66
2022/12/21 05:23:29;;;;;;;;;;;;;;;-5.37;81.55;99899.13;5046882;28;19928;-66
2022/12/21 05:25:55;;;;;;;;;;;;;;;-5.36;81.31;99903.47;5080716;28;20283;-66
2022/12/21 05:28:21;;;;;;;;;;;;;;;-5.36;81.50;99906.94;5062592;28;20340;-66
2022/12/21 05:30:47;;;;;;;;;;;;;;;-5.31;81.54;99911.78;5081926;28;20043;-66
2022/12/21 05:33:14;;;;;;;;;;;;;;;-5.19;81.45;99906.91;5084002;28;20366;-66
2022/12/21 05:35:40;;;;;;;;;;;;;;;-5.21;81.20;99903.59;5061013;28;19928;-66
2022/12/21 05:38:06;;;;;;;;;;;;;;;-5.28;81.26;99919.44;5040570;28;20011;-66
2022/12/21 05:40:33;;;;;;;;;;;;;;;-5.25;81.55;99903.09;5077048;28;19967;-66
2022/12/21 05:42:59;;;;;;;;;;;;;;;-5.21;81.57;99900.94;5083351;28;20466;-66
2022/12/21 05:45:24;;;;;;;;;;;;;;;-5.15;81.71;99894.91;5087915;28;20039;-66
2022/12/21 05:47:50;;;;;;;;;;;;;;;-5.14;81.56;99886.75;5084689;28;20299;-66
2022/12/21 05:50:17;;;;;;;;;;;;;;;-5.08;81.38;99901.25;5086313;28;19928;-66
2022/12/21 05:52:43;;;;;;;;;;;;;;;-5.06;81.36;99901.09;5086361;28;19932;-66
2022/12/21 05:55:09;;;;;;;;;;;;;;;-5.09;81.60;99910.25;5068616;28;20539;-66
2022/12/21 05:57:35;;;;;;;;;;;;;;;-5.07;81.64;99899.38;5087699;28;19928;-66
2022/12/21 06:00:00;;;;;;;;;;;;;;;-5.10;81.76;99905.06;5085771;28;20410;-66
2022/12/21 06:02:26;;;;;;;;;;;;;;;-5.04;81.72;99902.56;5086779;28;19928;-65
2022/12/21 06:04:52;;;;;;;;;;;;;;;-4.99;81.40;99904.72;5068228;28;19974;-65
2022/12/21 06:07:19;;;;;;;;;;;;;;;-5.04;81.60;99901.75;5085427;28;20005;-65
2022/12/21 06:09:44;;;;;;;;;;;;;;;-5.05;81.84;99903.56;5066408;28;19935;-65
2022/12/21 06:12:10;;;;;;;;;;;;;;;-4.98;81.60;99901.03;5084424;28;19928;-65
2022/12/21 06:14:36;;;;;;;;;;;;;;;-5.09;81.54;99870.25;5084898;28;20119;-65
2022/12/21 06:17:02;;;;;;;;;;;;;;;-4.89;81.46;99905.38;5063372;28;20321;-65
2022/12/21 06:19:28;;;;;;;;;;;;;;;-4.82;81.54;99912.69;5068858;28;19928;-65
2022/12/21 06:21:54;;;;;;;;;;;;;;;-4.77;81.28;99919.16;5065365;28;20311;-65
2022/12/21 06:24:21;;;;;;;;;;;;;;;-4.76;81.11;99925.31;5062110;28;19928;-65
2022/12/21 06:26:47;;;;;;;;;;;;;;;-4.76;80.85;99923.50;5065757;28;19935;-65
2022/12/21 06:29:13;;;;;;;;;;;;;;;-4.86;80.96;99922.84;5057204;28;19932;-66
2022/12/21 06:31:38;;;;;;;;;;;;;;;-4.87;81.09;99927.38;5055773;28;20395;-66
2022/12/21 06:34:04;;;;;;;;;;;;;;;-4.89;81.20;99923.19;5074198;28;19947;-66
2022/12/21 06:36:30;;;;;;;;;;;;;;;-4.88;81.28;99916.84;5075310;28;19934;-66
2022/12/21 06:38:56;;;;;;;;;;;;;;;-4.80;81.35;99914.19;5075439;28;19932;-66
2022/12/21 06:41:23;;;;;;;;;;;;;;;-4.74;81.08;99924.16;5076215;28;19973;-67
2022/12/21 06:43:50;;;;;;;;;;;;;;;-4.77;80.83;99927.16;5076814;28;19993;-66
2022/12/21 06:46:17;;;;;;;;;;;;;;;-4.84;81.00;99926.16;5087431;28;19928;-66
2022/12/21 06:48:43;;;;;;;;;;;;;;;-4.81;80.85;99920.53;5066854;28;19940;-66
2022/12/21 06:51:10;;;;;;;;;;;;;;;-4.82;80.86;99915.34;5065010;28;19928;-66
2022/12/21 06:53:37;;;;;;;;;;;;;;;-4.74;80.80;99916.16;5081449;28;20083;-65
2022/12/21 06:56:03;;;;;;;;;;;;;;;-4.69;80.77;99920.97;5066741;28;19928;-65
2022/12/21 06:58:31;;;;;;;;;;;;;;;-4.68;80.51;99916.47;5085264;28;20221;-65
2022/12/21 07:01:03;;;;;;;;;;;;;;;-4.71;80.52;99914.97;5087419;28;19997;-65
2022/12/21 07:03:28;;;;;;;;;;;;;;;-4.77;80.34;99912.97;5084802;28;20478;-66
2022/12/21 07:05:54;;;;;;;;;;;;;;;-4.78;80.52;99922.84;5085610;28;20027;-66
2022/12/21 07:08:21;;;;;;;;;;;;;;;-4.81;80.66;99925.84;5082736;28;20407;-66
2022/12/21 07:10:47;;;;;;;;;;;;;;;-4.79;80.71;99929.19;5083860;28;20264;-67
2022/12/21 07:13:12;;;;;;;;;;;;;;;-4.78;80.79;99924.66;5085685;28;19934;-66
2022/12/21 07:15:39;;;;;;;;;;;;;;;-4.77;80.82;99921.00;5069562;28;19963;-66
2022/12/21 07:18:05;;;;;;;;;;;;;;;-4.72;81.01;99919.47;5083646;28;19928;-66
2022/12/21 07:20:31;;;;;;;;;;;;;;;-4.71;81.00;99925.66;5062689;28;19973;-66
2022/12/21 07:22:57;;;;;;;;;;;;;;;-4.68;80.68;99919.97;5077246;28;19928;-66
2022/12/21 07:25:22;;;;;;;;;;;;;;;-4.64;80.79;99923.94;5085124;28;19932;-66
2022/12/21 07:27:48;;;;;;;;;;;;;;;-4.62;80.64;99935.28;5085071;28;19985;-66
2022/12/21 07:30:14;;;;;;;;;;;;;;;-4.61;80.55;99922.78;5085536;28;20349;-66
2022/12/21 07:32:41;;;;;;;;;;;;;;;-4.59;80.55;99939.47;5064410;28;20137;-66
2022/12/21 07:35:08;;;;;;;;;;;;;;;-4.61;80.59;99936.13;5081608;28;20049;-66
2022/12/21 07:37:34;;;;;;;;;;;;;;;-4.58;80.66;99941.97;5082141;28;19932;-67
2022/12/21 07:40:00;;;;;;;;;;;;;;;-4.50;80.49;99937.59;5087263;28;20260;-66
2022/12/21 07:42:26;;;;;;;;;;;;;;;-4.47;80.43;99942.56;5085809;28;19935;-66
2022/12/21 07:45:15;;;;;;;;;;;;;;;-4.48;80.59;99941.75;5049602;28;19928;-66
2022/12/21 07:47:47;;;;;;;;;;;;;;;-4.46;80.51;99942.41;5063303;28;20006;-66
2022/12/21 07:50:12;;;;;;;;;;;;;;;-4.47;80.36;99938.09;5058431;28;19932;-66
2022/12/21 07:52:39;;;;;;;;;;;;;;;-4.46;80.41;99942.41;5086613;28;20365;-66
2022/12/21 07:55:05;;;;;;;;;;;;;;;-4.45;80.46;99944.06;5085036;28;20310;-66
2022/12/21 07:57:31;;;;;;;;;;;;;;;-4.44;80.51;99940.41;5086231;28;20113;-66
2022/12/21 07:59:56;;;;;;;;;;;;;;;-4.41;80.30;99939.22;5084986;28;20044;-66
2022/12/21 08:02:22;;;;;;;;;;;;;;;-4.46;80.25;99939.75;5084303;28;19935;-66
2022/12/21 08:04:49;;;;;;;;;;;;;;;-4.53;80.46;99929.94;5085718;28;20360;-66
2022/12/21 08:07:15;;;;;;;;;;;;;;;-4.51;80.80;99936.78;5086614;28;20347;-65
2022/12/21 08:09:40;;;;;;;;;;;;;;;-4.56;80.80;99936.44;5086597;28;19935;-65
2022/12/21 08:12:06;;;;;;;;;;;;;;;-4.57;80.85;99934.78;5086557;28;19928;-65
2022/12/21 08:14:32;;;;;;;;;;;;;;;-4.55;81.27;99932.75;5086423;28;19928;-65
2022/12/21 08:16:59;;;;;;;;;;;;;;;-4.50;81.00;99942.94;5083511;28;19928;-65
2022/12/21 08:19:25;;;;;;;;;;;;;;;-4.58;81.15;99936.63;5082633;28;19973;-65
2022/12/21 08:21:52;;;;;;;;;;;;;;;-4.58;81.42;99933.13;5080706;28;19932;-65
2022/12/21 08:24:18;;;;;;;;;;;;;;;-4.68;81.66;99929.81;5063031;28;20062;-65
2022/12/21 08:26:43;;;;;;;;;;;;;;;-4.63;81.77;99916.78;5079798;28;20026;-65
2022/12/21 08:29:11;;;;;;;;;;;;;;;-4.54;81.85;99926.41;5085382;28;19931;-65
2022/12/21 08:31:37;;;;;;;;;;;;;;;-4.55;81.66;99924.75;5083501;28;19981;-65
2022/12/21 08:34:03;;;;;;;;;;;;;;;-4.53;81.52;99916.59;5085050;28;19928;-65
2022/12/21 08:36:30;;;;;;;;;;;;;;;-4.56;81.61;99926.59;5067115;28;20030;-65
2022/12/21 08:38:57;;;;;;;;;;;;;;;-4.65;81.65;99921.47;5084526;28;19931;-65
2022/12/21 08:41:24;;;;;;;;;;;;;;;-4.73;81.85;99943.69;5085704;28;19928;-65
2022/12/21 08:43:50;;;;;;;;;;;;;;;-4.79;82.02;99936.34;5087567;28;20296;-65
2022/12/21 08:46:15;;;;;;;;;;;;;;;-4.84;82.04;99932.34;5087206;28;19934;-65
2022/12/21 08:48:41;;;;;;;;;;;;;;;-4.94;82.50;99931.69;5068932;28;19928;-66
2022/12/21 08:51:07;;;;;;;;;;;;;;;-5.02;82.57;99924.56;5052766;28;19928;-65
2022/12/21 08:53:33;;;;;;;;;;;;;;;-4.97;82.87;99921.38;5069226;28;20213;-65
2022/12/21 08:56:00;;;;;;;;;;;;;;;-5.00;83.06;99927.06;5068034;28;19932;-66
2022/12/21 08:58:26;;;;;;;;;;;;;;;-5.00;83.33;99924.41;5066083;28;19928;-66
2022/12/21 09:00:53;;;;;;;;;;;;;;;-4.97;83.42;99933.91;5061613;28;19935;-66
2022/12/21 09:03:18;;;;;;;;;;;;;;;-4.99;83.19;99934.91;5083639;28;19928;-66
2022/12/21 09:05:45;;;;;;;;;;;;;;;-5.03;83.30;99930.06;5085188;28;19943;-66
2022/12/21 09:08:11;;;;;;;;;;;;;;;-5.06;83.43;99927.75;5082304;28;20377;-66
2022/12/21 09:10:37;;;;;;;;;;;;;;;-5.18;83.25;99906.75;5084496;28;20286;-67
2022/12/21 09:13:04;;;;;;;;;;;;;;;-5.09;83.36;99923.56;5084443;28;19932;-66
2022/12/21 09:15:30;;;;;;;;;;;;;;;-5.07;83.66;99929.56;5068657;28;19932;-66
2022/12/21 09:17:56;;;;;;;;;;;;;;;-5.03;83.56;99922.88;5090349;28;19928;-66
2022/12/21 09:20:21;;;;;;;;;;;;;;;-4.99;83.66;99924.25;5088901;28;20030;-66
2022/12/21 09:22:47;;;;;;;;;;;;;;;-4.98;83.67;99914.38;5067426;28;20310;-66
2022/12/21 09:25:13;;;;;;;;;;;;;;;-4.93;83.61;99913.88;5082097;28;19928;-66
2022/12/21 09:27:39;;;;;;;;;;;;;;;-4.88;83.55;99917.69;5083419;28;19931;-65
2022/12/21 09:30:08;;;;;;;;;;;;;;;-4.93;83.02;99905.88;5069165;28;19959;-66
2022/12/21 09:32:34;;;;;;;;;;;;;;;-4.98;83.03;99906.38;5071121;28;20001;-66
2022/12/21 09:35:00;;;;;;;;;;;;;;;-5.04;83.02;99915.06;5085077;28;20391;-65
2022/12/21 09:37:25;;;;;;;;;;;;;;;-4.99;83.25;99910.06;5085013;28;19982;-65
2022/12/21 09:39:51;;;;;;;;;;;;;;;-4.90;83.12;99911.72;5086507;28;20270;-65
2022/12/21 09:42:21;;;;;;;;;;;;;;;-4.90;82.75;99898.38;5086170;28;19934;-65
2022/12/21 09:44:54;;;;;;;;;;;;;;;-4.89;82.64;99885.84;5089055;28;19951;-65
2022/12/21 09:47:25;;;;;;;;;;;;;;;-4.87;82.77;99889.16;5080810;28;19989;-65
2022/12/21 09:49:53;;;;;;;;;;;;;;;-4.84;82.68;99886.16;5085071;28;20042;-66
2022/12/21 09:52:21;;;;;;;;;;;;;;;-4.83;82.48;99885.19;5088110;28;20357;-65
2022/12/21 09:54:52;;;;;;;;;;;;;;;-4.83;82.34;99898.53;4378853;28;10000361;-65
2022/12/21 09:57:18;;;;;;;;;;;;;;;-4.85;82.19;99893.34;5081343;28;20351;-66
2022/12/21 09:59:44;;;;;;;;;;;;;;;-4.90;82.35;99897.53;5082998;28;19928;-67
2022/12/21 10:02:18;;;;;;;;;;;;;;;-4.88;82.43;99892.84;5082009;28;19981;-67
2022/12/21 10:04:54;;;;;;;;;;;;;;;-4.85;82.48;99880.00;5083197;28;19928;-65
2022/12/21 10:07:28;;;;;;;;;;;;;;;-4.81;82.19;99879.66;5061425;28;20039;-65
2022/12/21 10:10:02;;;;;;;;;;;;;;;-4.81;82.07;99875.16;5084518;28;20032;-65
2022/12/21 10:12:31;;;;;;;;;;;;;;;-4.78;81.79;99873.97;5085282;28;19931;-65
2022/12/21 10:15:02;;;;;;;;;;;;;;;-4.82;81.86;99861.97;5070428;28;19928;-65
2022/12/21 10:17:34;;;;;;;;;;;;;;;-4.84;81.95;99857.66;5084818;28;19975;-65
2022/12/21 10:20:08;;;;;;;;;;;;;;;-4.90;81.95;99853.03;5084492;28;19936;-65
2022/12/21 10:22:36;;;;;;;;;;;;;;;-4.98;82.02;99850.38;5085546;28;19958;-67
2022/12/21 10:25:04;;;;;;;;;;;;;;;-5.00;82.42;99852.38;5087884;28;19971;-66
2022/12/21 10:27:32;;;;;;;;;;;;;;;-5.03;82.46;99855.41;5088537;28;19928;-66
2022/12/21 10:29:59;;;;;;;;;;;;;;;-5.02;82.63;99855.22;5088151;28;20018;-66
2022/12/21 10:32:27;;;;;;;;;;;;;;;-5.03;82.65;99840.22;5086479;28;19928;-67
2022/12/21 10:34:54;;;;;;;;;;;;;;;-5.00;82.76;99828.38;5086469;28;20250;-66
2022/12/21 10:37:22;;;;;;;;;;;;;;;-5.00;82.61;99844.38;5085397;28;19928;-65
2022/12/21 10:39:52;;;;;;;;;;;;;;;-5.01;82.99;99824.84;5083157;28;20280;-66
2022/12/21 10:42:20;;;;;;;;;;;;;;;-5.10;82.87;99798.41;5067631;28;19928;-66
2022/12/21 10:44:46;;;;;;;;;;;;;;;-4.95;82.88;99827.88;5068903;28;19935;-66
2022/12/21 10:47:13;;;;;;;;;;;;;;;-4.87;82.84;99836.66;5069129;28;19934;-66
2022/12/21 10:49:39;;;;;;;;;;;;;;;-4.86;83.07;99838.31;5069683;28;20399;-67
2022/12/21 10:52:31;;;;;;;;;;;;;;;-4.88;82.85;99827.00;5085054;28;19928;-66
2022/12/21 10:54:58;;;;;;;;;;;;;;;-4.89;83.13;99822.66;5086529;28;19928;-66
2022/12/21 10:57:25;;;;;;;;;;;;;;;-4.84;83.14;99819.47;5088296;28;19928;-66
2022/12/21 10:59:50;;;;;;;;;;;;;;;-4.84;82.98;99817.63;5068134;28;19935;-66
2022/12/21 11:02:30;;;;;;;;;;;;;;;-4.89;83.16;99816.50;5084987;28;19928;-67
2022/12/21 11:04:56;;;;;;;;;;;;;;;-4.86;83.29;99810.81;5067819;28;19928;-66
2022/12/21 11:07:24;;;;;;;;;;;;;;;-4.85;83.16;99807.97;5087337;28;19935;-66
2022/12/21 11:09:55;;;;;;;;;;;;;;;-4.87;83.23;99798.47;5064919;28;19928;-66
2022/12/21 11:12:23;;;;;;;;;;;;;;;-4.84;83.55;99800.78;5067691;28;19928;-66
2022/12/21 11:14:50;;;;;;;;;;;;;;;-4.83;83.36;99797.13;5089317;28;19928;-66
2022/12/21 11:17:21;;;;;;;;;;;;;;;-4.84;83.36;99798.13;5085582;28;20031;-66
2022/12/21 11:19:47;;;;;;;;;;;;;;;-4.81;83.49;99795.13;5061576;28;19942;-66
2022/12/21 11:22:13;;;;;;;;;;;;;;;-4.76;83.62;99803.44;5081730;28;19928;-65
2022/12/21 11:24:41;;;;;;;;;;;;;;;-4.74;83.53;99796.06;5065727;28;19928;-66
2022/12/21 11:27:14;;;;;;;;;;;;;;;-4.70;83.34;99810.72;5086802;28;19928;-65
2022/12/21 11:29:46;;;;;;;;;;;;;;;-4.74;83.41;99811.28;5086960;28;19950;-65
2022/12/21 11:32:12;;;;;;;;;;;;;;;-4.77;83.50;99816.94;5086565;28;20395;-66
2022/12/21 11:34:39;;;;;;;;;;;;;;;-4.79;83.65;99808.28;5078994;28;20031;-66
2022/12/21 11:37:06;;;;;;;;;;;;;;;-4.78;83.81;99805.44;5066003;28;20257;-66
2022/12/21 11:39:32;;;;;;;;;;;;;;;-4.79;83.71;99811.78;5053323;28;19935;-65
2022/12/21 11:41:58;;;;;;;;;;;;;;;-4.79;84.00;99797.59;5055507;28;19927;-66
2022/12/21 11:44:25;;;;;;;;;;;;;;;-4.79;84.05;99800.28;5073314;28;20395;-65
2022/12/21 11:46:57;;;;;;;;;;;;;;;-4.82;84.22;99798.81;5073493;28;20422;-65
2022/12/21 11:49:46;;;;;;;;;;;;;;;-4.80;84.18;99794.13;5073611;28;19939;-65
2022/12/21 11:52:16;;;;;;;;;;;;;;;-4.77;84.24;99804.44;5066233;28;19927;-65
2022/12/21 11:54:49;;;;;;;;;;;;;;;-4.75;84.44;99801.59;5082294;28;20004;-65
2022/12/21 11:57:21;;;;;;;;;;;;;;;-4.72;84.44;99803.91;4350376;28;10000801;-65
2022/12/21 11:59:52;;;;;;;;;;;;;;;-4.67;84.40;99798.88;5081946;28;20026;-65
2022/12/21 12:02:29;;;;;;;;;;;;;;;-4.71;84.47;99798.38;5078827;28;20025;-65
2022/12/21 12:05:01;;;;;;;;;;;;;;;-4.70;84.30;99794.72;5077959;28;19928;-65
2022/12/21 12:07:35;;;;;;;;;;;;;;;-4.68;84.44;99791.03;5079288;28;20419;-65
2022/12/21 12:10:10;;;;;;;;;;;;;;;-4.71;84.35;99794.91;5079960;28;19928;-65
2022/12/21 12:12:41;;;;;;;;;;;;;;;-4.68;84.35;99807.03;5024157;28;19927;-65
2022/12/21 12:15:12;;;;;;;;;;;;;;;-4.73;84.20;99791.59;5077984;28;19932;-65
2022/12/21 12:17:50;;;;;;;;;;;;;;;-4.76;84.07;99797.25;5074112;28;20018;-65
2022/12/21 12:20:25;;;;;;;;;;;;;;;-4.81;83.83;99805.78;5080431;28;19935;-65
2022/12/21 12:22:56;;;;;;;;;;;;;;;-4.79;84.04;99797.59;5079505;28;20280;-65
2022/12/21 12:25:34;;;;;;;;;;;;;;;-4.76;83.94;99800.75;5078933;28;19928;-66
2022/12/21 12:28:09;;;;;;;;;;;;;;;-4.74;83.92;99790.75;5074452;28;20018;-65
2022/12/21 12:30:41;;;;;;;;;;;;;;;-4.67;83.89;99790.88;5071545;28;20001;-65
2022/12/21 12:33:13;;;;;;;;;;;;;;;-4.67;83.79;99779.38;5074435;28;19928;-66
2022/12/21 12:35:48;;;;;;;;;;;;;;;-4.72;83.88;99782.56;5074824;28;19928;-66
2022/12/21 12:38:17;;;;;;;;;;;;;;;-4.73;84.04;99787.06;5061811;28;19932;-66
2022/12/21 12:40:48;;;;;;;;;;;;;;;-4.72;84.05;99783.38;5083098;28;20408;-66
2022/12/21 12:43:19;;;;;;;;;;;;;;;-4.69;84.00;99779.53;5066659;28;20062;-66
2022/12/21 12:45:50;;;;;;;;;;;;;;;-4.67;84.17;99771.38;5085604;28;19934;-66
2022/12/21 12:48:23;;;;;;;;;;;;;;;-4.70;84.11;99772.56;5082309;28;20421;-66
2022/12/21 12:50:52;;;;;;;;;;;;;;;-4.63;84.34;99772.69;5064811;28;19929;-66
2022/12/21 12:53:24;;;;;;;;;;;;;;;-4.61;84.36;99754.66;5085090;28;19928;-65
2022/12/21 12:55:53;;;;;;;;;;;;;;;-4.60;84.12;99746.47;5086029;28;19950;-65
2022/12/21 12:58:22;;;;;;;;;;;;;;;-4.58;84.26;99755.13;5085363;28;19928;-65
2022/12/21 13:00:52;;;;;;;;;;;;;;;-4.57;84.33;99742.59;5058597;28;20066;-65
2022/12/21 13:03:25;;;;;;;;;;;;;;;-4.58;84.45;99756.97;5083514;28;20394;-65
2022/12/21 13:05:55;;;;;;;;;;;;;;;-4.58;84.54;99755.13;5084131;28;19935;-65